Time;durP1;ratioP1;P1;durP2;ratioP2;P2;SDS_P1;SDS_P2;PMS_P1;PMS_P2;Temp;Humidity;BMP_temperature;BMP_pressure;BME280_temperature;BME280_humidity;BME280_pressure;Samples;Min_cycle;Max_cycle;Signal;HPM_P1;HPM_P2
2022/05/13 00:01:57;;;;;;;5.43;2.95;;;;;;;8.95;99.27;101411.22;4971776;28;20211;-49
2022/05/13 00:04:23;;;;;;;9.43;3.47;;;;;;;8.89;99.15;101414.03;4989556;28;20555;-48
2022/05/13 00:06:48;;;;;;;8.15;2.88;;;;;;;8.94;99.19;101411.25;4989630;28;20173;-48
2022/05/13 00:09:14;;;;;;;10.50;3.55;;;;;;;8.85;99.14;101407.00;4988525;28;20238;-46
2022/05/13 00:11:39;;;;;;;10.63;3.75;;;;;;;8.76;99.18;101407.19;4989624;28;20194;-47
2022/05/13 00:14:07;;;;;;;11.05;3.45;;;;;;;8.84;99.41;101405.25;4989335;28;20172;-46
2022/05/13 00:16:35;;;;;;;7.82;3.47;;;;;;;8.75;99.25;101409.00;4972235;28;20181;-47
2022/05/13 00:19:01;;;;;;;9.35;3.50;;;;;;;8.73;99.19;101408.16;4989963;28;20656;-46
2022/05/13 00:21:27;;;;;;;10.25;3.80;;;;;;;8.67;99.42;101400.25;4992762;28;20216;-49
2022/05/13 00:23:52;;;;;;;9.07;3.83;;;;;;;8.80;99.86;101403.53;4991182;28;20684;-47
2022/05/13 00:26:18;;;;;;;10.20;3.47;;;;;;;8.84;99.38;101410.59;4991616;28;20208;-46
2022/05/13 00:28:43;;;;;;;7.95;3.72;;;;;;;8.92;99.34;101411.31;4992103;28;20165;-49
2022/05/13 00:31:09;;;;;;;7.18;3.45;;;;;;;8.84;99.16;101400.78;4992387;28;20251;-46
2022/05/13 00:33:34;;;;;;;9.50;3.95;;;;;;;8.81;98.79;101405.28;4992637;28;20174;-47
2022/05/13 00:36:00;;;;;;;9.98;3.45;;;;;;;8.78;99.06;101400.91;4992381;28;20188;-47
2022/05/13 00:38:25;;;;;;;12.55;4.28;;;;;;;8.65;99.64;101402.06;4991943;28;20523;-47
2022/05/13 00:40:51;;;;;;;8.98;3.80;;;;;;;8.74;99.68;101393.84;4991007;28;20211;-48
2022/05/13 00:43:44;;;;;;;5.97;3.38;;;;;;;8.82;99.74;101397.25;4992620;28;20174;-48
2022/05/13 00:46:10;;;;;;;6.25;3.45;;;;;;;8.78;99.67;101387.53;4992231;28;20174;-48
2022/05/13 00:48:35;;;;;;;9.70;3.58;;;;;;;8.65;100.00;101378.03;4991898;28;20180;-47
2022/05/13 00:51:01;;;;;;;9.82;4.00;;;;;;;8.77;100.00;101380.47;4991986;28;20230;-47
2022/05/13 00:53:27;;;;;;;10.57;3.67;;;;;;;8.76;100.00;101383.16;4951950;28;1134781;-47
2022/05/13 00:55:53;;;;;;;12.00;3.47;;;;;;;8.68;100.00;101380.66;4992936;28;20185;-47
2022/05/13 00:58:19;;;;;;;7.03;3.20;;;;;;;8.75;100.00;101382.28;4993066;28;20182;-47
2022/05/13 01:00:46;;;;;;;8.38;3.67;;;;;;;8.81;99.73;101386.59;4976190;28;20623;-46
2022/05/13 01:03:13;;;;;;;6.22;2.92;;;;;;;8.84;99.84;101390.09;4992884;28;20220;-47
2022/05/13 01:05:45;;;;;;;10.75;3.67;;;;;;;8.84;99.38;101381.19;4993143;28;20172;-47
2022/05/13 01:08:11;;;;;;;10.63;3.90;;;;;;;8.86;99.34;101396.28;4992648;28;20174;-47
2022/05/13 01:10:39;;;;;;;14.48;3.30;;;;;;;8.82;98.76;101399.94;4992867;28;20213;-47
2022/05/13 01:13:08;;;;;;;9.45;3.47;;;;;;;8.86;98.96;101392.72;4989181;28;20178;-47
2022/05/13 01:15:39;;;;;;;9.73;3.50;;;;;;;8.89;98.44;101391.78;4992588;28;20235;-45
2022/05/13 01:18:07;;;;;;;8.77;3.40;;;;;;;8.91;98.35;101389.94;4992388;28;20269;-47
2022/05/13 01:20:46;;;;;;;8.27;2.97;;;;;;;8.96;98.06;101388.91;4975563;28;20192;-47
2022/05/13 01:23:19;;;;;;;14.35;4.07;;;;;;;9.01;97.95;101386.16;4971705;28;20209;-47
2022/05/13 01:25:49;;;;;;;7.82;3.42;;;;;;;9.03;97.81;101386.97;4981035;28;20221;-47
2022/05/13 01:28:27;;;;;;;7.80;3.25;;;;;;;9.05;97.21;101380.72;4991850;28;20232;-47
2022/05/13 01:30:57;;;;;;;7.28;3.15;;;;;;;9.04;96.98;101386.09;4974273;28;20280;-47
2022/05/13 01:33:24;;;;;;;10.35;3.00;;;;;;;9.04;96.84;101397.66;4992086;28;20181;-45
2022/05/13 01:35:53;;;;;;;13.20;3.17;;;;;;;9.08;96.68;101387.78;4992087;28;20190;-46
2022/05/13 01:38:22;;;;;;;6.25;3.40;;;;;;;9.06;96.45;101389.59;4991874;28;20169;-47
2022/05/13 01:40:48;;;;;;;5.65;3.08;;;;;;;9.10;96.35;101372.59;4991026;28;20216;-47
2022/05/13 01:43:13;;;;;;;8.50;3.33;;;;;;;8.99;96.01;101383.53;4974871;28;20185;-47
2022/05/13 01:45:39;;;;;;;8.88;3.13;;;;;;;9.02;96.18;101382.56;4992044;28;20174;-48
2022/05/13 01:48:14;;;;;;;10.38;3.40;;;;;;;8.99;96.04;101375.50;4992035;28;20216;-46
2022/05/13 01:50:39;;;;;;;8.52;3.35;;;;;;;9.15;95.66;101380.50;4973777;28;20213;-47
2022/05/13 01:53:06;;;;;;;9.50;3.17;;;;;;;9.06;95.26;101384.25;4992082;28;20158;-48
2022/05/13 01:55:32;;;;;;;8.52;3.13;;;;;;;9.03;95.43;101387.88;4992064;28;20189;-49
2022/05/13 01:57:57;;;;;;;8.52;3.13;;;;;;;9.01;95.55;101381.69;4992110;28;20212;-47
2022/05/13 02:00:23;;;;;;;7.95;3.53;;;;;;;8.97;95.77;101374.66;4991823;28;20205;-47
2022/05/13 02:05:33;;;;;;;8.05;3.80;;;;;;;9.00;95.68;101374.56;4991519;28;20181;-49
2022/05/13 02:07:59;;;;;;;6.97;3.95;;;;;;;9.16;95.42;101371.53;4991760;28;20542;-50
2022/05/13 02:10:24;;;;;;;11.18;3.90;;;;;;;9.21;95.43;101375.00;4991618;28;20212;-48
2022/05/13 02:12:50;;;;;;;7.60;4.05;;;;;;;9.12;94.86;101362.75;4992566;28;20185;-48
2022/05/13 02:15:15;;;;;;;7.22;4.57;;;;;;;9.13;95.00;101366.28;4991732;28;20196;-49
2022/05/13 02:17:41;;;;;;;8.90;4.82;;;;;;;9.07;95.19;101364.63;4991120;28;20547;-46
2022/05/13 02:20:08;;;;;;;7.47;4.57;;;;;;;9.09;95.30;101365.47;4991533;28;20169;-45
2022/05/13 02:22:34;;;;;;;8.98;4.30;;;;;;;9.13;95.07;101352.91;4991372;28;20172;-46
2022/05/13 02:25:00;;;;;;;11.80;4.97;;;;;;;9.18;95.32;101357.25;4991586;28;20264;-46
2022/05/13 02:27:25;;;;;;;11.40;5.35;;;;;;;9.08;95.14;101356.56;4991489;28;20177;-49
2022/05/13 02:29:51;;;;;;;10.93;5.97;;;;;;;9.07;95.60;101344.13;4991297;28;20181;-47
2022/05/13 02:32:16;;;;;;;11.50;5.50;;;;;;;9.12;95.36;101353.81;4991150;28;20339;-46
2022/05/13 02:34:42;;;;;;;7.57;5.50;;;;;;;9.17;95.41;101351.94;4991567;28;20561;-47
2022/05/13 02:37:08;;;;;;;11.90;6.30;;;;;;;9.11;95.26;101347.59;4991180;28;20529;-48
2022/05/13 02:39:33;;;;;;;10.80;6.35;;;;;;;9.00;95.78;101342.50;4991154;28;20182;-49
2022/05/13 02:41:59;;;;;;;9.70;6.63;;;;;;;8.98;96.08;101349.69;4991015;28;20212;-47
2022/05/13 02:44:25;;;;;;;12.98;7.25;;;;;;;9.03;96.69;101347.78;4990889;28;20196;-47
2022/05/13 02:46:51;;;;;;;13.82;7.35;;;;;;;8.98;97.04;101340.78;4973777;28;20276;-47
2022/05/13 02:49:17;;;;;;;13.45;7.88;;;;;;;9.10;96.55;101331.63;4990204;28;20280;-48
2022/05/13 02:51:46;;;;;;;11.48;7.38;;;;;;;9.10;96.69;101331.63;4991012;28;20209;-50
2022/05/13 02:54:11;;;;;;;13.27;7.82;;;;;;;9.07;96.65;101333.44;4973332;28;20285;-47
2022/05/13 02:56:37;;;;;;;15.00;7.95;;;;;;;9.06;96.66;101323.66;4991005;28;20264;-48
2022/05/13 02:59:02;;;;;;;13.05;7.90;;;;;;;9.10;96.94;101320.94;4991023;28;20181;-46
2022/05/13 03:01:28;;;;;;;11.65;8.52;;;;;;;9.18;96.84;101319.81;4990634;28;20650;-46
2022/05/13 03:03:54;;;;;;;10.48;8.23;;;;;;;9.18;96.61;101324.28;4973931;28;20244;-50
2022/05/13 03:06:20;;;;;;;12.80;8.25;;;;;;;9.15;95.98;101313.66;4990508;28;20170;-46
2022/05/13 03:08:49;;;;;;;12.15;8.20;;;;;;;9.21;96.64;101305.50;4990197;28;20233;-46
2022/05/13 03:11:16;;;;;;;12.70;8.45;;;;;;;9.10;96.43;101305.75;4990589;28;20791;-47
2022/05/13 03:13:42;;;;;;;15.73;8.52;;;;;;;9.15;96.44;101306.50;4983159;28;20264;-46
2022/05/13 03:16:18;;;;;;;11.60;8.02;;;;;;;9.08;96.21;101308.47;4985805;28;20285;-46
2022/05/13 03:18:44;;;;;;;8.73;7.68;;;;;;;9.12;96.44;101298.59;4969571;28;20193;-46
2022/05/13 03:21:10;;;;;;;14.65;8.70;;;;;;;9.12;96.40;101300.34;4971074;28;20196;-48
2022/05/13 03:23:36;;;;;;;10.00;7.75;;;;;;;9.13;96.30;101294.97;4973995;28;20193;-47
2022/05/13 03:26:01;;;;;;;10.77;7.47;;;;;;;9.19;96.24;101285.94;4982755;28;20181;-49
2022/05/13 03:28:27;;;;;;;12.90;8.07;;;;;;;9.13;96.11;101286.97;4989766;28;20221;-48
2022/05/13 03:30:52;;;;;;;11.57;7.80;;;;;;;9.14;96.44;101279.81;4990683;28;20252;-48
2022/05/13 03:33:19;;;;;;;12.68;7.57;;;;;;;9.12;96.37;101271.84;4990499;28;20174;-47
2022/05/13 03:35:45;;;;;;;13.73;8.23;;;;;;;9.13;96.67;101278.06;4990645;28;20264;-47
2022/05/13 03:38:11;;;;;;;11.93;8.10;;;;;;;9.16;96.81;101273.53;4989994;28;20184;-48
2022/05/13 03:40:37;;;;;;;12.60;7.82;;;;;;;9.19;96.52;101276.13;4990567;28;20571;-48
2022/05/13 03:43:04;;;;;;;8.27;7.15;;;;;;;9.16;96.87;101264.59;4989981;28;20260;-46
2022/05/13 03:45:32;;;;;;;10.57;6.78;;;;;;;9.19;97.14;101268.09;4990553;28;20594;-47
2022/05/13 03:47:59;;;;;;;15.98;7.65;;;;;;;9.18;97.20;101269.03;4990022;28;20173;-46
2022/05/13 03:50:24;;;;;;;8.73;7.15;;;;;;;9.19;97.51;101269.91;4989665;28;20225;-49
2022/05/13 03:52:50;;;;;;;12.63;7.00;;;;;;;9.23;97.85;101269.78;4990532;28;20264;-47
2022/05/13 03:55:15;;;;;;;10.70;7.82;;;;;;;9.28;97.90;101273.19;4975622;28;20280;-47
2022/05/13 03:57:41;;;;;;;11.60;7.63;;;;;;;9.31;98.24;101263.34;4994067;28;20585;-47
2022/05/13 04:00:07;;;;;;;12.00;7.18;;;;;;;9.35;98.19;101273.03;4993580;28;20649;-48
2022/05/13 04:02:33;;;;;;;11.95;7.63;;;;;;;9.35;98.26;101259.69;4994327;28;20158;-48
2022/05/13 04:10:27;;;;;;;10.45;7.50;;;;;;;9.44;98.73;101252.28;4976062;28;20201;-46
2022/05/13 04:18:21;;;;;;;12.38;7.50;;;;;;;9.52;98.98;101252.09;4993255;28;20196;-49
2022/05/13 04:20:47;;;;;;;9.63;7.18;;;;;;;9.60;98.68;101251.84;4993209;28;20201;-49
2022/05/13 04:23:14;;;;;;;13.15;7.80;;;;;;;9.62;98.67;101242.91;4994125;28;20169;-48
2022/05/13 04:25:39;;;;;;;13.95;7.68;;;;;;;9.57;98.81;101249.28;4993667;28;20166;-49
2022/05/13 04:28:05;;;;;;;12.00;7.30;;;;;;;9.62;98.80;101252.69;4993694;28;20187;-46
2022/05/13 04:30:31;;;;;;;13.75;7.53;;;;;;;9.61;99.28;101248.28;4993501;28;20292;-48
2022/05/13 04:32:56;;;;;;;15.30;7.18;;;;;;;9.63;99.09;101252.66;4993460;28;20236;-47
2022/05/13 04:35:21;;;;;;;13.60;7.45;;;;;;;9.60;99.26;101246.50;4993846;28;20188;-47
2022/05/13 04:37:47;;;;;;;16.80;7.57;;;;;;;9.60;99.27;101247.41;4993642;28;20173;-48
2022/05/13 04:40:13;;;;;;;14.45;7.40;;;;;;;9.61;99.35;101250.97;4993181;28;20193;-48
2022/05/13 04:42:50;;;;;;;14.65;8.02;;;;;;;9.65;99.51;101244.59;4992300;28;20236;-47
2022/05/13 04:45:35;;;;;;;14.05;6.53;;;;;;;9.68;99.53;101252.53;4993301;28;20169;-50
2022/05/13 04:48:16;;;;;;;11.02;7.15;;;;;;;9.71;99.50;101255.16;4992207;28;20191;-45
2022/05/13 04:50:49;;;;;;;12.50;7.28;;;;;;;9.72;99.52;101262.22;4992614;28;20204;-48
2022/05/13 04:53:18;;;;;;;14.50;7.50;;;;;;;9.81;99.15;101266.44;4993433;28;20178;-46
2022/05/13 04:55:43;;;;;;;13.18;7.55;;;;;;;9.78;98.92;101267.41;4992988;28;20726;-47
2022/05/13 04:58:08;;;;;;;12.68;7.38;;;;;;;9.75;99.02;101264.84;4993530;28;20162;-48
2022/05/13 05:00:35;;;;;;;11.18;6.88;;;;;;;9.78;98.98;101277.25;4992652;28;20193;-48
2022/05/13 05:03:01;;;;;;;10.10;6.45;;;;;;;9.85;98.83;101274.34;4993417;28;20637;-46
2022/05/13 05:05:27;;;;;;;10.63;6.95;;;;;;;9.78;98.84;101283.47;4992874;28;20180;-50
2022/05/13 05:07:53;;;;;;;13.48;7.10;;;;;;;9.76;99.08;101279.09;4993160;28;20181;-50
2022/05/13 05:10:21;;;;;;;14.35;7.57;;;;;;;9.80;99.04;101281.63;4990896;28;20206;-50
2022/05/13 05:12:47;;;;;;;12.07;7.55;;;;;;;9.81;99.10;101282.50;4992963;28;20201;-47
2022/05/13 05:15:13;;;;;;;12.52;7.13;;;;;;;9.84;99.10;101277.97;4992838;28;20169;-49
2022/05/13 05:17:40;;;;;;;12.80;6.68;;;;;;;9.86;98.93;101280.56;4993097;28;20185;-47
2022/05/13 05:20:06;;;;;;;11.30;7.25;;;;;;;9.89;98.71;101281.38;4992294;28;20235;-49
2022/05/13 05:22:31;;;;;;;10.63;7.22;;;;;;;9.90;98.79;101269.75;4992786;28;20531;-49
2022/05/13 05:24:57;;;;;;;15.82;7.32;;;;;;;9.86;98.15;101275.22;4992801;28;20188;-47
2022/05/13 05:27:22;;;;;;;12.98;6.97;;;;;;;9.87;98.44;101283.22;4975280;28;20660;-45
2022/05/13 05:29:48;;;;;;;16.38;6.97;;;;;;;9.88;98.11;101268.03;4992292;28;20652;-47
2022/05/13 05:32:13;;;;;;;9.93;6.40;;;;;;;9.88;97.69;101268.94;4992478;28;20213;-49
2022/05/13 05:34:39;;;;;;;10.32;6.80;;;;;;;9.92;97.47;101264.34;4992691;28;20243;-46
2022/05/13 05:37:05;;;;;;;14.60;6.75;;;;;;;9.92;97.33;101259.00;4992471;28;20182;-47
2022/05/13 05:39:30;;;;;;;13.75;6.78;;;;;;;9.98;97.00;101261.50;4992107;28;20670;-49
2022/05/13 05:41:55;;;;;;;13.18;6.70;;;;;;;10.00;96.67;101256.97;4992316;28;20213;-48
2022/05/13 05:44:21;;;;;;;12.75;6.95;;;;;;;10.00;96.63;101251.63;4974804;28;20672;-47
2022/05/13 05:46:46;;;;;;;9.90;6.32;;;;;;;10.06;96.71;101246.09;4992531;28;20169;-48
2022/05/13 05:49:12;;;;;;;10.50;6.07;;;;;;;10.11;96.43;101262.03;4991761;28;20184;-47
2022/05/13 05:51:37;;;;;;;10.70;5.97;;;;;;;10.15;96.14;101255.66;4992013;28;20220;-47
2022/05/13 05:59:37;;;;;;;10.57;6.40;;;;;;;10.36;95.53;101255.97;4990179;28;20249;-49
2022/05/13 06:05:06;;;;;;;10.93;5.85;;;;;;;10.48;94.93;101263.63;5867549;23;20229;-47
2022/05/13 06:07:32;;;;;;;10.48;6.25;;;;;;;10.48;94.31;101264.50;5006907;28;20567;-46
2022/05/13 06:09:57;;;;;;;12.15;6.10;;;;;;;10.47;94.14;101260.09;5016683;28;20180;-44
2022/05/13 06:12:23;;;;;;;12.07;6.05;;;;;;;10.52;94.48;101262.63;5013924;28;20204;-46
2022/05/13 06:14:48;;;;;;;10.48;5.88;;;;;;;10.57;94.18;101265.16;5012229;28;20271;-47
2022/05/13 06:17:13;;;;;;;12.93;6.07;;;;;;;10.52;94.24;101262.63;5007891;28;20307;-45
2022/05/13 06:19:39;;;;;;;10.07;5.75;;;;;;;10.55;94.27;101259.81;5024640;28;20269;-46
2022/05/13 06:22:05;;;;;;;12.13;6.43;;;;;;;10.50;94.46;101246.56;5023542;28;20677;-44
2022/05/13 06:24:30;;;;;;;17.25;6.82;;;;;;;10.51;94.87;101252.81;5010795;28;20176;-43
2022/05/13 06:26:56;;;;;;;10.75;5.95;;;;;;;10.55;94.60;101264.31;5009218;28;20654;-44
2022/05/13 06:29:23;;;;;;;13.30;6.10;;;;;;;10.51;94.32;101268.88;5010882;28;20168;-45
2022/05/13 06:31:49;;;;;;;12.90;6.63;;;;;;;10.48;94.35;101261.81;5010441;28;20212;-46
2022/05/13 06:34:16;;;;;;;11.63;5.90;;;;;;;10.60;94.25;101263.22;4994227;28;20209;-44
2022/05/13 06:36:42;;;;;;;12.15;6.07;;;;;;;10.58;94.09;101258.84;4991180;28;20240;-46
2022/05/13 06:39:08;;;;;;;12.85;6.57;;;;;;;10.60;94.01;101265.03;4989943;28;20161;-45
2022/05/13 06:41:37;;;;;;;10.50;5.65;;;;;;;10.68;94.12;101263.00;4991324;28;20222;-43
2022/05/13 06:44:08;;;;;;;12.07;5.70;;;;;;;10.77;93.80;101264.50;4991049;28;20519;-44
2022/05/13 06:46:38;;;;;;;12.60;5.97;;;;;;;10.77;93.66;101256.47;4988355;28;20209;-42
2022/05/13 06:49:05;;;;;;;11.02;5.82;;;;;;;10.84;93.38;101252.66;4991225;28;20289;-44
2022/05/13 06:51:31;;;;;;;10.68;6.20;;;;;;;10.86;93.15;101254.34;4990601;28;20259;-46
2022/05/13 06:54:03;;;;;;;9.00;5.28;;;;;;;10.92;92.81;101256.84;4991221;28;20189;-46
2022/05/13 06:56:31;;;;;;;8.50;5.30;;;;;;;10.94;92.54;101264.84;4990535;28;20364;-47
2022/05/13 06:58:56;;;;;;;15.07;6.60;;;;;;;10.84;92.44;101266.94;4991359;28;20184;-44
2022/05/13 07:01:22;;;;;;;16.77;5.72;;;;;;;10.97;92.66;101263.84;4990860;28;20189;-45
2022/05/13 07:03:49;;;;;;;11.40;5.85;;;;;;;10.95;92.64;101265.72;4989774;28;20181;-45
2022/05/13 07:06:15;;;;;;;10.75;5.50;;;;;;;10.93;92.58;101258.63;4991282;28;20170;-43
2022/05/13 07:08:40;;;;;;;10.13;5.88;;;;;;;11.00;92.37;101261.06;4994685;28;20288;-44
2022/05/13 07:11:07;;;;;;;10.98;5.93;;;;;;;11.05;92.34;101272.53;5028940;28;20662;-45
2022/05/13 07:13:32;;;;;;;13.40;5.90;;;;;;;11.10;92.67;101273.25;5030145;28;20181;-43
2022/05/13 07:15:59;;;;;;;10.13;6.13;;;;;;;11.36;91.50;101269.69;5030034;28;20214;-42
2022/05/13 07:18:24;;;;;;;12.02;6.00;;;;;;;11.33;91.18;101262.63;5030290;28;20172;-45
2022/05/13 07:20:50;;;;;;;12.38;5.75;;;;;;;11.38;91.05;101267.84;5030204;28;20555;-46
2022/05/13 07:23:15;;;;;;;11.35;5.97;;;;;;;11.43;91.33;101271.22;5029047;28;20164;-42
2022/05/13 07:25:41;;;;;;;11.10;5.95;;;;;;;11.47;90.34;101269.31;5028886;28;20164;-43
2022/05/13 07:28:06;;;;;;;10.77;5.88;;;;;;;11.51;90.01;101276.34;5030516;28;20168;-46
2022/05/13 07:30:32;;;;;;;13.70;5.88;;;;;;;11.39;90.21;101261.56;5032760;28;20202;-46
2022/05/13 07:32:57;;;;;;;11.57;5.63;;;;;;;11.35;90.35;101270.63;5034150;28;20164;-44
2022/05/13 07:35:23;;;;;;;8.48;5.13;;;;;;;11.28;91.05;101272.66;5034200;28;20168;-47
2022/05/13 07:37:48;;;;;;;8.20;5.18;;;;;;;11.18;91.26;101281.94;5032797;28;20175;-46
2022/05/13 07:42:58;;;;;;;12.75;6.40;;;;;;;11.08;92.06;101270.59;5026582;28;20612;-45
2022/05/13 07:45:24;;;;;;;13.40;6.00;;;;;;;11.09;91.83;101283.09;5012416;28;20243;-46
2022/05/13 07:47:49;;;;;;;12.60;6.43;;;;;;;11.08;92.19;101284.03;5012797;28;20167;-44
2022/05/13 07:50:16;;;;;;;11.70;5.72;;;;;;;11.11;92.28;101275.03;5013482;28;20204;-44
2022/05/13 07:52:41;;;;;;;14.23;6.13;;;;;;;11.07;92.13;101270.69;4991678;28;20568;-46
2022/05/13 07:55:10;;;;;;;9.30;5.30;;;;;;;11.15;92.55;101279.34;4993837;28;20166;-45
2022/05/13 07:57:38;;;;;;;15.95;5.93;;;;;;;11.18;92.55;101281.06;4994076;28;20172;-43
2022/05/13 08:00:25;;;;;;;11.82;5.72;;;;;;;11.24;92.28;101272.78;5019910;28;20203;-46
2022/05/13 08:03:00;;;;;;;10.85;6.43;;;;;;;11.25;91.75;101275.41;5023595;28;20271;-44
2022/05/13 08:05:29;;;;;;;10.45;5.68;;;;;;;11.36;91.79;101280.41;5033560;28;20199;-46
2022/05/13 08:08:05;;;;;;;13.60;6.00;;;;;;;11.39;91.31;101290.16;5019539;28;20199;-46
2022/05/13 08:10:31;;;;;;;9.52;4.97;;;;;;;11.40;91.15;101282.06;5013344;28;20632;-45
2022/05/13 08:12:56;;;;;;;11.70;5.53;;;;;;;11.49;91.15;101281.75;5004040;28;20189;-47
2022/05/13 08:15:22;;;;;;;11.40;6.05;;;;;;;11.47;91.62;101286.28;5011125;28;20277;-46
2022/05/13 08:17:47;;;;;;;11.20;6.00;;;;;;;11.50;91.67;101264.72;5002120;28;20278;-44
2022/05/13 08:20:13;;;;;;;10.88;6.40;;;;;;;11.56;92.26;101274.34;5024291;28;20555;-45
2022/05/13 08:22:38;;;;;;;12.18;6.07;;;;;;;11.51;92.49;101282.56;5029459;28;20250;-44
2022/05/13 08:25:04;;;;;;;12.75;6.32;;;;;;;11.68;93.08;101275.75;5030875;28;20267;-45
2022/05/13 08:27:32;;;;;;;10.38;6.28;;;;;;;11.82;92.62;101291.34;5032886;28;20655;-46
2022/05/13 08:30:01;;;;;;;13.30;6.05;;;;;;;11.88;91.73;101289.34;5032904;28;20175;-43
2022/05/13 08:32:27;;;;;;;13.90;5.63;;;;;;;11.95;91.44;101298.94;5030927;28;20192;-46
2022/05/13 08:34:53;;;;;;;14.07;6.22;;;;;;;12.02;92.30;101317.50;5015594;28;20295;-47
2022/05/13 08:37:19;;;;;;;17.42;6.95;;;;;;;11.30;92.69;101335.19;5008686;28;20197;-44
2022/05/13 08:39:44;;;;;;;20.25;5.80;;;;;;;10.56;93.70;101315.19;5010761;28;20207;-44
2022/05/13 08:42:22;;;;;;;14.10;6.53;;;;;;;10.42;96.50;101315.59;5011434;28;20259;-47
2022/05/13 08:44:49;;;;;;;13.73;4.88;;;;;;;10.33;97.50;101307.81;5012319;28;20219;-44
2022/05/13 08:47:38;;;;;;;16.35;6.75;;;;;;;10.61;99.86;101318.59;5012401;28;20659;-44
2022/05/13 08:50:21;;;;;;;14.00;7.35;;;;;;;10.84;100.00;101319.66;5012783;28;20165;-45
2022/05/13 08:53:06;;;;;;;11.30;6.32;;;;;;;11.04;100.00;101301.16;5011616;28;20246;-46
2022/05/13 08:56:05;;;;;;;15.55;8.45;;;;;;;11.20;100.00;101314.06;5012859;28;20239;-47
2022/05/13 08:58:35;;;;;;;15.73;8.10;;;;;;;11.13;100.00;101316.94;5012890;28;20180;-46
2022/05/13 09:01:04;;;;;;;19.20;9.95;;;;;;;11.23;100.00;101309.47;5011414;28;20245;-43
2022/05/13 09:03:30;;;;;;;19.20;9.25;;;;;;;11.44;100.00;101307.88;5011282;28;20169;-46
2022/05/13 09:06:00;;;;;;;14.35;8.57;;;;;;;11.59;100.00;101308.25;5012866;28;20550;-44
2022/05/13 09:08:27;;;;;;;14.07;9.13;;;;;;;12.14;100.00;101303.63;5011556;28;20687;-45
2022/05/13 09:11:20;;;;;;;16.85;8.68;;;;;;;12.24;100.00;101301.47;5009881;28;20216;-44
2022/05/13 09:14:01;;;;;;;21.13;9.15;;;;;;;12.27;100.00;101294.19;5010201;28;20189;-45
2022/05/13 09:16:42;;;;;;;17.73;9.38;;;;;;;12.32;100.00;101288.63;5010274;28;20161;-44
2022/05/13 09:19:14;;;;;;;14.73;7.78;;;;;;;12.52;100.00;101286.03;4995780;28;20219;-47
2022/05/13 09:21:44;;;;;;;13.63;7.22;;;;;;;12.58;100.00;101285.81;5011600;28;20204;-42
2022/05/13 09:24:10;;;;;;;14.02;7.90;;;;;;;12.61;99.95;101284.81;5012351;28;20458;-46
2022/05/13 09:26:38;;;;;;;13.50;8.55;;;;;;;12.53;99.17;101285.13;5011899;28;20768;-47
2022/05/13 09:29:10;;;;;;;16.83;8.98;;;;;;;12.46;99.44;101280.03;5011100;28;20238;-45
2022/05/13 09:31:48;;;;;;;17.65;9.57;;;;;;;12.67;99.40;101273.81;5011955;28;20223;-46
2022/05/13 09:34:35;;;;;;;16.10;9.88;;;;;;;12.91;99.32;101271.94;5012100;28;20579;-44
2022/05/13 09:37:18;;;;;;;16.15;9.05;;;;;;;13.26;98.56;101252.59;5011707;28;20270;-45
2022/05/13 09:39:45;;;;;;;26.63;9.20;;;;;;;13.54;96.95;101253.19;5012006;28;20173;-45
2022/05/13 09:42:25;;;;;;;15.88;8.07;;;;;;;13.81;95.60;101255.59;5012113;28;20192;-45
2022/05/13 09:44:54;;;;;;;17.60;7.88;;;;;;;13.74;94.94;101256.81;5011684;28;20268;-46
2022/05/13 09:47:27;;;;;;;11.77;6.75;;;;;;;13.62;93.82;101242.06;5011997;28;20235;-44
2022/05/13 09:49:53;;;;;;;14.63;7.03;;;;;;;13.53;93.19;101261.31;5011634;28;20165;-44
2022/05/13 09:52:31;;;;;;;15.88;6.45;;;;;;;13.09;92.53;101250.59;5011104;28;20325;-47
2022/05/13 09:55:11;;;;;;;15.00;6.55;;;;;;;13.24;93.71;101260.72;5010379;28;20177;-47
2022/05/13 09:57:38;;;;;;;13.65;6.97;;;;;;;13.61;93.49;101248.41;5011523;28;20210;-46
2022/05/13 10:00:06;;;;;;;17.10;7.15;;;;;;;13.55;92.74;101244.16;5010297;28;20272;-45
2022/05/13 10:02:40;;;;;;;16.52;5.10;;;;;;;13.40;89.79;101260.97;5011549;28;20251;-46
2022/05/13 10:05:20;;;;;;;11.57;4.97;;;;;;;12.96;87.93;101271.75;5011555;28;20173;-44
2022/05/13 10:07:59;;;;;;;13.13;4.22;;;;;;;12.85;86.18;101277.56;5011450;28;20203;-46
2022/05/13 10:16:21;;;;;;;11.43;3.90;;;;;;;12.62;89.09;101283.88;5011449;28;20271;-46
2022/05/13 10:18:47;;;;;;;12.23;4.15;;;;;;;13.55;87.98;101267.50;5011046;28;20291;-45
2022/05/13 10:21:31;;;;;;;9.32;3.40;;;;;;;13.42;87.01;101282.44;5009930;28;20223;-45
2022/05/13 10:24:18;;;;;;;10.02;3.63;;;;;;;12.99;86.47;101290.47;5009930;28;20211;-45
2022/05/13 10:26:46;;;;;;;10.70;3.25;;;;;;;13.03;85.72;101278.66;5020554;28;20634;-45
2022/05/13 10:29:38;;;;;;;7.10;2.83;;;;;;;12.99;84.68;101285.97;5030784;28;20186;-45
2022/05/13 10:32:27;;;;;;;13.00;3.20;;;;;;;13.35;84.79;101292.59;5029142;28;20200;-45
2022/05/13 10:34:59;;;;;;;12.23;3.35;;;;;;;13.91;82.73;101293.78;5019936;28;20619;-44
2022/05/13 10:38:08;;;;;;;11.90;2.60;;;;;;;14.03;79.66;101295.91;5030613;28;20234;-45
2022/05/13 10:40:37;;;;;;;6.57;1.70;;;;;;;13.95;77.33;101290.88;5030690;28;20212;-43
2022/05/13 10:43:15;;;;;;;7.72;2.33;;;;;;;13.94;78.00;101289.09;5016487;28;20185;-45
2022/05/13 10:45:42;;;;;;;8.25;2.00;;;;;;;13.72;77.81;101293.69;5027268;28;20211;-44
2022/05/13 10:48:29;;;;;;;9.55;2.35;;;;;;;14.17;77.58;101295.28;5030460;28;20160;-43
2022/05/13 10:51:03;;;;;;;10.32;2.80;;;;;;;14.01;77.10;101296.00;5029096;28;20746;-44
2022/05/13 10:53:50;;;;;;;8.38;2.30;;;;;;;14.10;77.18;101302.78;5030559;28;20218;-45
2022/05/13 10:56:40;;;;;;;8.48;2.30;;;;;;;13.98;77.02;101308.72;5030324;28;20168;-43
2022/05/13 10:59:18;;;;;;;7.22;2.78;;;;;;;14.15;75.10;101294.47;5030476;28;20184;-44
2022/05/13 11:02:05;;;;;;;12.23;2.78;;;;;;;14.27;75.54;101299.28;5030133;28;20204;-45
2022/05/13 11:04:48;;;;;;;9.38;2.10;;;;;;;14.57;76.25;101294.31;5030317;28;20693;-44
2022/05/13 11:07:40;;;;;;;7.10;2.20;;;;;;;14.55;75.77;101306.13;5011835;28;20196;-45
2022/05/13 11:10:15;;;;;;;7.07;2.15;;;;;;;14.26;73.89;101305.63;5010673;28;20589;-44
2022/05/13 11:12:55;;;;;;;6.95;1.80;;;;;;;14.51;72.71;101296.41;5009867;28;20202;-45
2022/05/13 11:15:29;;;;;;;8.45;2.08;;;;;;;14.95;71.70;101304.22;5010359;28;20215;-43
2022/05/13 11:18:30;;;;;;;7.57;2.03;;;;;;;15.05;71.96;101297.41;5010327;28;20706;-45
2022/05/13 11:21:06;;;;;;;6.75;1.95;;;;;;;15.74;69.94;101293.94;5009899;28;20283;-46
2022/05/13 11:25:54;;;;;;;9.45;2.10;;;;;;;16.02;69.87;101304.13;5010374;28;20190;-43
2022/05/13 11:26:41;;;;;;;6.57;1.63;;;;;;;15.30;68.91;101307.84;5018117;28;20195;-44
2022/05/13 11:29:30;;;;;;;8.38;2.20;;;;;;;14.64;69.77;101311.09;5030125;28;20164;-43
2022/05/13 11:32:26;;;;;;;7.35;1.90;;;;;;;14.74;72.18;101325.88;5023159;28;20295;-43
2022/05/13 11:35:14;;;;;;;6.13;1.90;;;;;;;14.68;70.91;101317.22;4990648;28;20177;-42
2022/05/13 11:37:45;;;;;;;7.95;1.90;;;;;;;14.74;72.44;101333.97;4990874;28;20166;-44
2022/05/13 11:40:41;;;;;;;8.57;2.20;;;;;;;14.85;73.76;101328.06;4990501;28;20181;-44
2022/05/13 11:43:29;;;;;;;5.75;2.00;;;;;;;14.80;71.75;101320.22;4990249;28;20168;-45
2022/05/13 11:46:09;;;;;;;6.18;1.70;;;;;;;14.63;71.78;101317.44;4990661;28;20165;-45
2022/05/13 11:48:40;;;;;;;10.13;2.42;;;;;;;14.82;72.13;101321.00;4990050;28;20177;-44
2022/05/13 11:51:11;;;;;;;5.97;1.60;;;;;;;14.48;72.21;101327.09;4990050;28;20629;-45
2022/05/13 11:54:18;;;;;;;6.97;1.92;;;;;;;15.24;71.53;101313.59;4990220;28;20174;-43
2022/05/13 11:56:46;;;;;;;8.48;1.60;;;;;;;15.92;69.52;101311.00;4990560;28;20636;-45
2022/05/13 11:59:27;;;;;;;7.90;1.67;;;;;;;15.71;69.35;101318.41;4989381;28;20224;-44
2022/05/13 12:02:13;;;;;;;5.40;1.77;;;;;;;15.52;68.27;101328.38;4990718;28;20305;-43
2022/05/13 12:05:02;;;;;;;5.32;1.77;;;;;;;14.80;68.66;101341.78;5005477;28;20727;-45
2022/05/13 12:07:30;;;;;;;5.72;1.50;;;;;;;14.52;69.52;101341.28;4990449;28;20276;-45